createdAt,value
2019-02-06T00:01:23.173Z,58.00
2019-02-06T00:03:55.097Z,58.00
2019-02-06T00:06:27.022Z,57.90
2019-02-06T00:09:09.019Z,57.90
2019-02-06T00:11:40.944Z,57.90
2019-02-06T00:14:12.915Z,57.60
2019-02-06T00:16:45.038Z,57.00
2019-02-06T00:19:21.546Z,56.20
2019-02-06T00:21:53.419Z,55.50
2019-02-06T00:24:25.373Z,54.80
2019-02-06T00:26:57.258Z,54.10
2019-02-06T00:29:29.284Z,53.50
2019-02-06T00:32:01.453Z,53.50
2019-02-06T00:34:33.426Z,54.00
2019-02-06T00:37:05.422Z,53.60
2019-02-06T00:39:37.360Z,54.10
2019-02-06T00:42:09.396Z,54.50
2019-02-06T00:44:41.478Z,55.10
2019-02-06T00:47:13.466Z,55.70
2019-02-06T00:49:45.349Z,56.30
2019-02-06T00:52:17.334Z,56.90
2019-02-06T00:54:49.251Z,57.10
2019-02-06T00:57:21.179Z,57.00
2019-02-06T00:59:53.106Z,56.80
2019-02-06T01:02:24.986Z,56.10
2019-02-06T01:04:56.915Z,56.10
2019-02-06T01:07:28.808Z,56.70
2019-02-06T01:10:00.802Z,56.90
2019-02-06T01:12:32.791Z,56.90
2019-02-06T01:15:05.019Z,57.10
2019-02-06T01:17:36.919Z,56.30
2019-02-06T01:20:10.661Z,55.60
2019-02-06T01:22:42.603Z,55.70
2019-02-06T01:25:15.882Z,54.40
2019-02-06T01:27:47.786Z,53.70
2019-02-06T01:30:23.255Z,52.90
2019-02-06T01:32:55.123Z,52.10
2019-02-06T01:35:27.072Z,51.70
2019-02-06T01:37:58.974Z,51.90
2019-02-06T01:40:30.919Z,51.70
2019-02-06T01:43:02.796Z,52.00
2019-02-06T01:45:34.813Z,52.80
2019-02-06T01:48:06.787Z,53.30
2019-02-06T01:50:43.708Z,53.30
2019-02-06T01:53:15.618Z,53.40
2019-02-06T01:55:47.597Z,53.30
2019-02-06T01:58:19.868Z,53.30
2019-02-06T02:00:51.843Z,52.90
2019-02-06T02:03:23.805Z,52.80
2019-02-06T02:06:02.514Z,52.80
2019-02-06T02:08:30.379Z,52.90
2019-02-06T02:11:02.672Z,53.00
2019-02-06T02:13:34.618Z,53.00
2019-02-06T02:16:06.945Z,52.90
2019-02-06T02:18:39.879Z,53.50
2019-02-06T02:21:17.734Z,53.90
2019-02-06T02:23:49.660Z,54.00
2019-02-06T02:26:21.586Z,53.90
2019-02-06T02:28:53.509Z,53.60
2019-02-06T02:31:25.573Z,53.50
2019-02-06T02:33:57.500Z,53.10
2019-02-06T02:36:29.317Z,53.30
2019-02-06T02:39:01.211Z,52.50
2019-02-06T02:41:34.405Z,53.00
2019-02-06T02:44:06.654Z,52.80
2019-02-06T03:04:04.850Z,51.80
2019-02-06T03:06:53.222Z,51.40
2019-02-06T03:10:13.189Z,51.20
2019-02-06T03:13:47.663Z,51.20
2019-02-06T03:18:52.402Z,51.10
2019-02-06T03:21:08.042Z,51.40
2019-02-06T03:24:55.607Z,51.40
2019-02-06T03:32:22.600Z,51.30
2019-02-06T03:46:11.979Z,53.30
2019-02-06T03:49:34.850Z,52.10
2019-02-06T03:52:52.609Z,51.40
2019-02-06T04:11:28.012Z,51.10
2019-02-06T04:14:20.216Z,51.00
2019-02-06T04:17:55.185Z,51.00
2019-02-06T04:20:37.072Z,51.40
2019-02-06T04:27:11.432Z,51.20
2019-02-06T04:29:43.529Z,50.40
2019-02-06T04:32:15.697Z,50.50
2019-02-06T04:34:57.698Z,51.00
2019-02-06T04:37:36.551Z,51.10
2019-02-06T04:40:20.785Z,51.40
2019-02-06T04:42:53.124Z,51.80
2019-02-06T04:45:26.561Z,51.50
2019-02-06T04:48:00.884Z,51.60
2019-02-06T04:50:35.825Z,51.30
2019-02-06T04:53:15.620Z,51.40
2019-02-06T04:55:48.836Z,51.30
2019-02-06T04:58:23.880Z,51.50
2019-02-06T05:01:06.652Z,51.40
2019-02-06T05:03:50.130Z,51.40
2019-02-06T05:06:29.660Z,51.10
2019-02-06T05:13:06.239Z,50.80
2019-02-06T05:15:41.751Z,51.20
2019-02-06T05:18:15.452Z,51.10
2019-02-06T05:20:47.741Z,51.10
2019-02-06T05:23:22.857Z,51.50
2019-02-06T05:25:55.069Z,51.90
2019-02-06T05:28:27.038Z,52.50
2019-02-06T05:30:58.988Z,53.00
2019-02-06T05:33:31.391Z,53.90
2019-02-06T05:36:03.264Z,52.70
2019-02-06T05:38:35.172Z,51.40
2019-02-06T05:41:07.100Z,51.30
2019-02-06T05:43:39.017Z,53.20
2019-02-06T05:46:10.994Z,52.20
2019-02-06T05:48:43.174Z,51.30
2019-02-06T05:51:18.582Z,51.70
2019-02-06T05:53:50.511Z,51.50
2019-02-06T05:56:22.520Z,51.20
2019-02-06T05:58:54.440Z,50.90
2019-02-06T06:01:26.474Z,50.50
2019-02-06T06:32:31.935Z,52.10
2019-02-06T06:35:19.650Z,52.60
2019-02-06T06:37:59.401Z,52.50
2019-02-06T06:40:25.206Z,52.10
2019-02-06T06:42:57.092Z,51.80
2019-02-06T06:45:29.008Z,51.40
2019-02-06T06:48:00.928Z,51.30
2019-02-06T06:50:32.819Z,51.00
2019-02-06T06:53:04.731Z,50.90
2019-02-06T06:55:36.664Z,50.80
2019-02-06T06:58:08.580Z,50.90
2019-02-06T07:00:40.479Z,51.00
2019-02-06T07:03:12.401Z,51.40
2019-02-06T07:05:44.310Z,51.00
2019-02-06T07:08:16.216Z,50.80
2019-02-06T07:10:48.133Z,51.00
2019-02-06T07:13:20.011Z,50.70
2019-02-06T07:15:51.955Z,50.20
2019-02-06T07:18:23.864Z,50.30
2019-02-06T07:20:55.841Z,50.60
2019-02-06T07:23:27.753Z,50.60
2019-02-06T07:25:59.756Z,50.90
2019-02-06T07:28:31.678Z,50.50
2019-02-06T07:31:03.589Z,50.60
2019-02-06T07:33:35.462Z,50.70
2019-02-06T07:36:07.373Z,51.00
2019-02-06T07:38:39.271Z,50.60
2019-02-06T07:41:11.186Z,50.70
2019-02-06T07:43:43.135Z,52.00
2019-02-06T07:46:15.066Z,53.50
2019-02-06T07:48:46.961Z,52.90
2019-02-06T07:51:18.889Z,52.40
2019-02-06T07:53:50.822Z,51.90
2019-02-06T07:56:22.743Z,51.20
2019-02-06T07:58:54.633Z,49.70
2019-02-06T08:01:26.553Z,49.80
2019-02-06T08:03:58.518Z,51.40
2019-02-06T08:06:30.510Z,51.40
2019-02-06T08:09:05.994Z,51.50
2019-02-06T08:11:37.925Z,51.10
2019-02-06T08:14:09.979Z,50.70
2019-02-06T08:16:41.914Z,51.20
2019-02-06T08:19:13.790Z,51.40
2019-02-06T08:21:46.114Z,49.20
2019-02-06T08:24:18.046Z,49.10
2019-02-06T08:26:49.959Z,48.50
2019-02-06T08:29:21.842Z,48.70
2019-02-06T08:31:53.771Z,49.80
2019-02-06T08:34:26.035Z,50.30
2019-02-06T08:36:57.966Z,50.20
2019-02-06T08:39:29.991Z,50.40
2019-02-06T08:42:01.854Z,50.30
2019-02-06T08:44:33.763Z,50.40
2019-02-06T08:47:05.812Z,50.20
2019-02-06T08:49:37.771Z,50.20
2019-02-06T08:52:09.662Z,50.10
2019-02-06T08:54:41.685Z,49.80
2019-02-06T08:57:13.572Z,49.70
2019-02-06T08:59:45.873Z,49.50
2019-02-06T09:02:17.785Z,48.70
2019-02-06T09:04:55.987Z,48.90
2019-02-06T09:07:23.350Z,48.30
2019-02-06T09:09:55.286Z,48.70
2019-02-06T09:12:27.529Z,48.50
2019-02-06T09:14:59.477Z,48.50
2019-02-06T09:17:32.402Z,48.50
2019-02-06T09:20:04.648Z,49.00
2019-02-06T09:22:36.591Z,48.90
2019-02-06T09:25:09.396Z,48.20
2019-02-06T09:27:41.313Z,47.50
2019-02-06T09:30:16.540Z,47.00
2019-02-06T09:32:48.454Z,46.40
2019-02-06T09:35:20.320Z,46.60
2019-02-06T09:37:52.278Z,45.20
2019-02-06T09:40:27.128Z,43.70
2019-02-06T09:42:59.170Z,43.00
2019-02-06T09:45:31.063Z,42.00
2019-02-06T09:48:02.964Z,41.90
2019-02-06T09:50:37.701Z,41.30
2019-02-06T09:53:09.606Z,40.40
2019-02-06T09:55:41.473Z,40.70
2019-02-06T09:58:13.383Z,40.30
2019-02-06T10:00:45.754Z,38.70
2019-02-06T10:03:17.666Z,37.80
2019-02-06T10:05:49.576Z,36.30
2019-02-06T10:08:21.551Z,35.70
2019-02-06T10:10:53.436Z,34.50
2019-02-06T10:13:25.586Z,33.90
2019-02-06T10:15:57.516Z,33.80
2019-02-06T10:18:29.382Z,33.90
2019-02-06T10:21:01.296Z,33.40
2019-02-06T10:23:33.168Z,32.80
2019-02-06T10:26:05.456Z,32.40
2019-02-06T10:28:37.322Z,32.80
2019-02-06T10:31:09.265Z,31.90
2019-02-06T10:33:41.143Z,32.00
2019-02-06T10:36:13.044Z,31.30
2019-02-06T10:38:45.199Z,30.50
2019-02-06T10:41:17.118Z,29.30
2019-02-06T10:43:49.000Z,29.10
2019-02-06T10:46:20.942Z,28.70
2019-02-06T10:48:52.773Z,29.10
2019-02-06T10:51:24.957Z,28.70
2019-02-06T10:53:56.839Z,27.60
2019-02-06T10:56:28.769Z,27.40
2019-02-06T10:59:00.649Z,25.50
2019-02-06T11:01:32.565Z,24.20
2019-02-06T11:04:05.032Z,22.30
2019-02-06T11:06:36.963Z,22.30
2019-02-06T11:09:09.518Z,21.40
2019-02-06T11:11:41.431Z,21.00
2019-02-06T11:14:13.472Z,20.50
2019-02-06T11:16:45.570Z,19.90
2019-02-06T11:19:17.475Z,19.90
2019-02-06T11:21:49.411Z,19.40
2019-02-06T11:24:21.296Z,20.00
2019-02-06T11:26:53.220Z,19.60
2019-02-06T11:29:25.439Z,19.50
2019-02-06T11:31:58.620Z,20.70
2019-02-06T11:34:30.498Z,22.50
2019-02-06T11:37:02.596Z,23.40
2019-02-06T11:39:34.487Z,23.70
2019-02-06T11:42:06.586Z,24.10
2019-02-06T11:44:38.540Z,23.70
2019-02-06T11:47:10.456Z,23.60
2019-02-06T11:49:44.038Z,24.30
2019-02-06T11:52:15.982Z,22.90
2019-02-06T11:54:47.889Z,21.80
2019-02-06T11:57:19.719Z,21.50
2019-02-06T11:59:53.124Z,20.30
2019-02-06T12:02:36.745Z,21.10
2019-02-06T12:04:59.583Z,21.50
2019-02-06T12:07:31.508Z,22.30
2019-02-06T12:10:10.064Z,21.80
2019-02-06T12:12:37.081Z,22.00
2019-02-06T12:15:14.740Z,23.10
2019-02-06T12:17:46.939Z,22.70
2019-02-06T12:20:24.431Z,23.00
2019-02-06T12:22:56.333Z,23.00
2019-02-06T12:25:28.267Z,22.70
2019-02-06T12:28:00.140Z,23.20
2019-02-06T12:30:33.505Z,23.50
2019-02-06T12:33:05.619Z,22.90
2019-02-06T12:35:37.547Z,23.10
2019-02-06T12:38:09.437Z,22.80
2019-02-06T12:40:41.407Z,22.20
2019-02-06T12:43:13.297Z,21.80
2019-02-06T12:45:45.401Z,21.00
2019-02-06T12:48:17.274Z,21.90
2019-02-06T12:50:49.257Z,23.00
2019-02-06T12:53:21.143Z,23.10
2019-02-06T12:55:53.048Z,23.70
2019-02-06T12:58:26.150Z,24.80
2019-02-06T13:00:58.267Z,26.30
2019-02-06T13:03:30.185Z,26.40
2019-02-06T13:06:02.061Z,26.90
2019-02-06T13:08:33.994Z,27.50
2019-02-06T13:11:06.009Z,27.70
2019-02-06T13:13:37.939Z,26.70
2019-02-06T13:16:09.901Z,24.90
2019-02-06T13:18:41.801Z,22.60
2019-02-06T13:21:13.745Z,21.00
2019-02-06T13:23:45.618Z,20.00
2019-02-06T13:26:17.539Z,19.40
2019-02-06T13:28:49.483Z,19.50
2019-02-06T13:31:21.370Z,19.30
2019-02-06T13:33:53.318Z,19.10
2019-02-06T13:36:25.206Z,18.90
2019-02-06T13:38:57.191Z,19.00
2019-02-06T13:41:29.098Z,19.20
2019-02-06T13:44:01.065Z,18.90
2019-02-06T13:46:32.961Z,18.50
2019-02-06T13:49:04.971Z,18.60
2019-02-06T13:51:37.547Z,18.50
2019-02-06T13:54:09.487Z,18.00
2019-02-06T13:56:41.593Z,18.40
2019-02-06T13:59:13.474Z,18.30
2019-02-06T14:01:45.394Z,18.70
2019-02-06T14:04:19.170Z,18.80
2019-02-06T14:06:51.127Z,19.40
2019-02-06T14:09:26.663Z,19.50
2019-02-06T14:11:56.634Z,18.70
2019-02-06T14:14:32.035Z,18.50
2019-02-06T14:17:03.966Z,18.80
2019-02-06T14:19:35.850Z,19.40
2019-02-06T14:22:09.831Z,19.20
2019-02-06T14:25:22.548Z,19.10
2019-02-06T14:28:24.855Z,20.10
2019-02-06T14:31:46.893Z,20.00
2019-02-06T14:35:25.298Z,20.40
2019-02-06T14:38:55.215Z,21.20
2019-02-06T14:41:54.514Z,21.90
2019-02-06T14:44:57.923Z,22.20
2019-02-06T14:48:13.905Z,22.70
2019-02-06T14:52:15.108Z,23.00
2019-02-06T14:55:02.209Z,23.90
2019-02-06T14:58:06.916Z,24.20
2019-02-06T15:01:22.896Z,25.10
2019-02-06T15:04:41.017Z,25.40
2019-02-06T15:08:03.757Z,25.60
2019-02-06T15:11:32.283Z,26.30
2019-02-06T15:15:06.951Z,26.50
2019-02-06T15:18:27.003Z,31.20
2019-02-06T15:21:31.353Z,36.10
2019-02-06T15:25:32.911Z,39.30
2019-02-06T15:28:53.476Z,42.60
2019-02-06T15:32:39.881Z,45.50
2019-02-06T15:36:01.675Z,47.60
2019-02-06T15:39:46.579Z,49.40
2019-02-06T15:43:15.844Z,50.40
2019-02-06T15:46:55.958Z,50.90
2019-02-06T15:50:13.283Z,50.80
2019-02-06T15:53:09.035Z,51.40
2019-02-06T15:56:29.119Z,52.00
2019-02-06T16:00:39.306Z,52.70
2019-02-06T16:04:34.214Z,53.10
2019-02-06T16:08:24.185Z,53.40
2019-02-06T16:11:42.395Z,53.50
2019-02-06T16:14:45.344Z,54.40
2019-02-06T16:18:07.914Z,55.30
2019-02-06T16:21:31.930Z,55.50
2019-02-06T16:24:50.481Z,56.00
2019-02-06T16:28:16.031Z,57.00
2019-02-06T16:31:35.092Z,58.10
2019-02-06T16:35:21.813Z,58.50
2019-02-06T16:38:42.406Z,58.90
2019-02-06T16:41:56.713Z,59.50
2019-02-06T16:45:06.087Z,59.60
2019-02-06T16:48:38.385Z,60.10
2019-02-06T16:51:29.688Z,60.30
2019-02-06T16:54:57.650Z,60.80
2019-02-06T16:58:24.522Z,61.60
2019-02-06T17:02:08.795Z,61.70
2019-02-06T17:05:12.796Z,62.10
2019-02-06T17:09:01.435Z,62.20
2019-02-06T17:12:34.225Z,62.20
2019-02-06T17:15:48.766Z,62.40
2019-02-06T17:19:07.068Z,62.30
2019-02-06T17:22:34.926Z,62.40
2019-02-06T17:26:09.945Z,62.10
2019-02-06T17:30:05.867Z,61.80
2019-02-06T17:33:22.170Z,61.70
2019-02-06T17:37:15.313Z,62.50
2019-02-06T17:40:47.630Z,63.10
2019-02-06T17:44:24.158Z,63.40
2019-02-06T17:47:37.486Z,63.20
2019-02-06T17:50:48.104Z,63.20
2019-02-06T17:53:44.192Z,63.40
2019-02-06T17:56:16.159Z,63.40
2019-02-06T17:58:48.315Z,63.80
2019-02-06T18:01:55.208Z,64.20
2019-02-06T18:04:39.041Z,64.70
2019-02-06T18:07:11.713Z,64.10
2019-02-06T18:09:43.903Z,63.90
2019-02-06T18:12:25.962Z,63.90
2019-02-06T18:14:50.019Z,63.80
2019-02-06T18:17:22.490Z,63.20
2019-02-06T18:19:55.546Z,62.80
2019-02-06T18:22:27.783Z,62.60
2019-02-06T18:24:59.812Z,62.30
2019-02-06T18:27:31.846Z,61.50
2019-02-06T18:30:05.749Z,61.20
2019-02-06T18:32:38.034Z,61.30
2019-02-06T18:35:10.577Z,61.30
2019-02-06T18:37:43.378Z,60.90
2019-02-06T18:40:15.911Z,60.70
2019-02-06T18:42:48.398Z,60.30
2019-02-06T18:45:20.753Z,60.30
2019-02-06T18:47:57.278Z,61.00
2019-02-06T18:50:31.108Z,59.80
2019-02-06T18:53:03.520Z,59.60
2019-02-06T18:55:35.892Z,59.60
2019-02-06T18:58:08.971Z,59.30
2019-02-06T19:00:41.054Z,59.40
2019-02-06T19:03:21.533Z,59.10
2019-02-06T19:05:53.516Z,59.20
2019-02-06T19:08:25.432Z,59.40
2019-02-06T19:10:57.497Z,59.40
2019-02-06T19:13:29.399Z,59.40
2019-02-06T19:16:01.571Z,59.10
2019-02-06T19:18:33.493Z,59.10
2019-02-06T19:21:05.478Z,59.00
2019-02-06T19:23:37.891Z,58.60
2019-02-06T19:26:10.639Z,58.70
2019-02-06T19:28:42.548Z,58.60
2019-02-06T19:31:16.034Z,58.60
2019-02-06T19:33:48.879Z,58.40
2019-02-06T19:36:20.836Z,58.30
2019-02-06T19:38:52.747Z,58.30
2019-02-06T19:41:24.719Z,58.40
2019-02-06T19:43:56.791Z,58.80
2019-02-06T19:46:29.101Z,59.40
2019-02-06T19:49:01.898Z,59.70
2019-02-06T19:51:34.125Z,59.80
2019-02-06T19:54:06.126Z,59.40
2019-02-06T19:56:38.169Z,59.10
2019-02-06T19:59:10.093Z,58.50
2019-02-06T20:01:42.028Z,58.10
2019-02-06T20:04:13.908Z,57.70
2019-02-06T20:06:45.888Z,57.10
2019-02-06T20:09:17.804Z,56.70
2019-02-06T20:11:49.731Z,56.70
2019-02-06T20:14:21.659Z,56.70
2019-02-06T20:16:53.616Z,57.10
2019-02-06T20:19:25.806Z,57.10
2019-02-06T20:21:57.820Z,57.10
2019-02-06T20:24:29.744Z,57.00
2019-02-06T20:27:01.871Z,56.70
2019-02-06T20:29:33.784Z,56.40
2019-02-06T20:32:06.310Z,56.40
2019-02-06T20:34:38.263Z,56.30
2019-02-06T20:37:10.216Z,56.50
2019-02-06T20:39:42.274Z,56.70
2019-02-06T20:42:14.175Z,56.80
2019-02-06T20:44:46.169Z,57.40
2019-02-06T20:47:18.297Z,57.90
2019-02-06T20:49:50.285Z,57.90
2019-02-06T20:52:23.671Z,58.50
2019-02-06T20:54:55.727Z,57.80
2019-02-06T20:57:27.637Z,57.50
2019-02-06T21:00:00.007Z,57.10
2019-02-06T21:02:31.971Z,57.30
2019-02-06T21:05:04.287Z,57.40
2019-02-06T21:07:36.200Z,57.50
2019-02-06T21:10:13.751Z,57.40
2019-02-06T21:12:45.677Z,57.50
2019-02-06T21:15:17.613Z,57.40
2019-02-06T21:17:49.636Z,57.40
2019-02-06T21:20:23.677Z,57.30
2019-02-06T21:22:55.798Z,57.30
2019-02-06T21:25:27.711Z,57.00
2019-02-06T21:28:00.042Z,57.00
2019-02-06T21:30:34.742Z,57.00
2019-02-06T21:33:06.856Z,56.80
2019-02-06T21:35:38.787Z,56.70
2019-02-06T21:38:10.725Z,56.20
2019-02-06T21:40:42.636Z,54.80
2019-02-06T21:43:14.632Z,55.00
2019-02-06T21:45:52.554Z,54.90
2019-02-06T21:48:24.988Z,53.50
2019-02-06T21:50:57.147Z,52.80
2019-02-06T21:53:29.101Z,52.80
2019-02-06T21:56:00.994Z,53.20
2019-02-06T21:58:33.028Z,53.50
2019-02-06T22:01:05.019Z,53.30
2019-02-06T22:03:36.951Z,52.20
2019-02-06T22:06:08.926Z,51.20
2019-02-06T22:08:40.922Z,50.80
2019-02-06T22:11:12.837Z,50.80
2019-02-06T22:13:54.696Z,51.90
2019-02-06T22:16:18.636Z,53.90
2019-02-06T22:18:50.672Z,54.60
2019-02-06T22:21:22.596Z,54.90
2019-02-06T22:23:54.988Z,55.30
2019-02-06T22:26:26.943Z,55.40
2019-02-06T22:28:58.882Z,55.70
2019-02-06T22:31:30.885Z,55.30
2019-02-06T22:34:02.882Z,55.20
2019-02-06T22:36:35.186Z,55.50
2019-02-06T22:39:12.124Z,54.90
2019-02-06T22:41:44.041Z,53.50
2019-02-06T22:44:15.958Z,52.40
2019-02-06T22:46:47.854Z,51.60
2019-02-06T22:49:19.775Z,52.20
2019-02-06T22:51:51.667Z,54.10
2019-02-06T22:54:23.602Z,55.50
2019-02-06T22:56:55.609Z,56.10
2019-02-06T22:59:27.402Z,56.40
2019-02-06T23:02:00.334Z,56.40
2019-02-06T23:04:32.259Z,56.30
2019-02-06T23:07:04.190Z,56.20
2019-02-06T23:09:37.804Z,55.90
2019-02-06T23:12:10.070Z,55.50
2019-02-06T23:14:42.067Z,54.50
2019-02-06T23:17:14.130Z,53.40
2019-02-06T23:19:46.056Z,53.60
